createdAt,value
2023-01-28T00:01:19.579Z,101293.56
2023-01-28T00:03:50.598Z,101299.28
2023-01-28T00:06:18.738Z,101300.53
2023-01-28T00:08:45.660Z,101303.31
2023-01-28T00:11:13.473Z,101302.69
2023-01-28T00:13:40.365Z,101298.63
2023-01-28T00:16:08.915Z,101294.69
2023-01-28T00:18:36.608Z,101298.81
2023-01-28T00:21:21.232Z,101287.41
2023-01-28T00:23:52.174Z,101285.75
2023-01-28T00:26:18.989Z,101284.22
2023-01-28T00:28:46.011Z,101282.91
2023-01-28T00:31:14.653Z,101285.75
2023-01-28T00:33:41.328Z,101289.81
2023-01-28T00:36:11.038Z,101283.38
2023-01-28T00:38:37.732Z,101290.88
2023-01-28T00:41:18.938Z,101279.91
2023-01-28T00:43:45.625Z,101286.59
2023-01-28T00:46:13.959Z,101283.28
2023-01-28T00:48:42.804Z,101283.56
2023-01-28T00:51:12.711Z,101279.59
2023-01-28T00:53:40.096Z,101279.72
2023-01-28T00:56:08.956Z,101284.94
2023-01-28T00:58:35.632Z,101284.91
2023-01-28T01:01:12.713Z,101287.34
2023-01-28T01:03:39.325Z,101284.75
2023-01-28T01:06:07.266Z,101280.63
2023-01-28T01:08:39.868Z,101282.72
2023-01-28T01:11:08.039Z,101287.72
2023-01-28T01:13:34.918Z,101289.63
2023-01-28T01:16:07.239Z,101282.19
2023-01-28T01:18:34.927Z,101284.28
2023-01-28T01:21:02.262Z,101287.97
2023-01-28T01:23:30.590Z,101286.19
2023-01-28T01:25:57.207Z,101293.47
2023-01-28T01:28:23.783Z,101293.94
2023-01-28T01:31:06.767Z,101300.81
2023-01-28T01:33:34.072Z,101291.91
2023-01-28T01:36:01.121Z,101302.13
2023-01-28T01:38:28.848Z,101289.44
2023-01-28T01:41:00.200Z,101296.16
2023-01-28T01:43:57.902Z,101285.22
2023-01-28T01:46:43.440Z,101290.19
2023-01-28T01:49:20.975Z,101296.94
2023-01-28T01:51:50.426Z,101292.53
2023-01-28T01:54:19.174Z,101302.66
2023-01-28T01:56:48.763Z,101303.31
2023-01-28T01:59:21.951Z,101300.34
2023-01-28T02:01:48.812Z,101298.41
2023-01-28T02:04:21.724Z,101299.88
2023-01-28T02:06:49.132Z,101305.50
2023-01-28T02:09:29.436Z,101294.75
2023-01-28T02:12:22.302Z,101300.50
2023-01-28T02:14:54.324Z,101302.00
2023-01-28T02:17:22.112Z,101295.19
2023-01-28T02:20:02.262Z,101301.53
2023-01-28T02:22:42.675Z,101296.31
2023-01-28T02:25:29.197Z,101306.78
2023-01-28T02:28:26.769Z,101305.00
2023-01-28T02:31:16.246Z,101317.28
2023-01-28T02:34:10.999Z,101311.69
2023-01-28T02:36:47.539Z,101310.50
2023-01-28T02:39:28.382Z,101308.22
2023-01-28T02:42:34.939Z,101315.44
2023-01-28T02:45:03.039Z,101306.09
2023-01-28T02:47:50.046Z,101303.63
2023-01-28T02:50:19.875Z,101297.56
2023-01-28T02:53:44.157Z,101287.88
2023-01-28T02:56:37.538Z,101298.06
2023-01-28T02:59:30.974Z,101300.06
2023-01-28T03:02:08.558Z,101305.22
2023-01-28T03:05:05.913Z,101302.19
2023-01-28T03:07:36.494Z,101306.94
2023-01-28T03:10:07.583Z,101304.91
2023-01-28T03:12:58.788Z,101312.06
2023-01-28T03:15:55.760Z,101319.69
2023-01-28T03:18:46.743Z,101323.84
2023-01-28T03:21:47.914Z,101318.88
2023-01-28T03:24:47.507Z,101318.22
2023-01-28T03:27:57.378Z,101322.34
2023-01-28T03:30:49.445Z,101316.84
2023-01-28T03:33:44.676Z,101306.00
2023-01-28T03:36:30.495Z,101304.03
2023-01-28T03:38:58.475Z,101313.25
2023-01-28T03:41:26.489Z,101318.59
2023-01-28T03:43:56.034Z,101324.84
2023-01-28T03:46:22.812Z,101328.03
2023-01-28T03:48:49.450Z,101343.25
2023-01-28T03:51:17.823Z,101337.31
2023-01-28T03:53:44.432Z,101331.53
2023-01-28T03:56:18.313Z,101350.50
2023-01-28T03:58:56.585Z,101355.53
2023-01-28T04:01:24.255Z,101355.81
2023-01-28T04:03:51.028Z,101352.81
2023-01-28T04:06:24.204Z,101360.69
2023-01-28T04:08:59.529Z,101354.19
2023-01-28T04:12:01.700Z,101361.69
2023-01-28T04:14:34.243Z,101358.84
2023-01-28T04:17:12.443Z,101349.16
2023-01-28T04:19:40.376Z,101346.25
2023-01-28T04:22:11.176Z,101349.41
2023-01-28T04:24:39.287Z,101349.22
2023-01-28T04:27:05.932Z,101351.38
2023-01-28T04:29:32.646Z,101355.19
2023-01-28T04:32:12.743Z,101359.50
2023-01-28T04:34:54.534Z,101354.34
2023-01-28T04:37:40.510Z,101357.72
2023-01-28T04:40:24.007Z,101356.69
2023-01-28T04:43:01.702Z,101351.75
2023-01-28T04:45:54.643Z,101362.16
2023-01-28T04:48:40.704Z,101356.69
2023-01-28T04:51:39.715Z,101359.28
2023-01-28T04:54:18.428Z,101362.19
2023-01-28T04:56:45.041Z,101366.38
2023-01-28T04:59:11.720Z,101359.78
2023-01-28T05:01:39.007Z,101367.69
2023-01-28T05:04:06.534Z,101365.09
2023-01-28T05:06:36.572Z,101368.25
2023-01-28T05:09:09.959Z,101366.00
2023-01-28T05:11:39.019Z,101370.31
2023-01-28T05:14:07.737Z,101369.31
2023-01-28T05:16:46.232Z,101371.66
2023-01-28T05:19:12.920Z,101379.31
2023-01-28T05:21:44.274Z,101373.03
2023-01-28T05:24:33.263Z,101375.50
2023-01-28T05:27:00.175Z,101378.81
2023-01-28T05:29:27.045Z,101383.50
2023-01-28T05:31:53.828Z,101380.53
2023-01-28T05:34:20.866Z,101386.50
2023-01-28T05:36:47.824Z,101396.47
2023-01-28T05:39:46.443Z,101390.63
2023-01-28T05:42:13.137Z,101391.34
2023-01-28T05:44:44.951Z,101398.50
2023-01-28T05:47:16.673Z,101398.88
2023-01-28T05:49:59.598Z,101401.16
2023-01-28T05:52:46.458Z,101405.00
2023-01-28T05:55:21.339Z,101415.50
2023-01-28T05:57:48.636Z,101414.84
2023-01-28T06:00:18.153Z,101411.63
2023-01-28T06:02:45.697Z,101419.44
2023-01-28T06:05:14.735Z,101420.91
2023-01-28T06:07:45.109Z,101416.31
2023-01-28T06:10:12.439Z,101425.84
2023-01-28T06:12:40.430Z,101423.91
2023-01-28T06:15:26.986Z,101429.63
2023-01-28T06:18:02.868Z,101428.31
2023-01-28T06:20:32.985Z,101437.78
2023-01-28T06:23:00.776Z,101435.44
2023-01-28T06:25:27.574Z,101450.09
2023-01-28T06:27:55.331Z,101445.38
2023-01-28T06:30:21.918Z,101448.78
2023-01-28T06:32:54.195Z,101450.78
2023-01-28T06:35:21.473Z,101454.75
2023-01-28T06:37:48.135Z,101464.84
2023-01-28T06:40:15.232Z,101462.91
2023-01-28T06:42:42.004Z,101467.75
2023-01-28T06:45:10.425Z,101467.75
2023-01-28T06:47:39.127Z,101472.06
2023-01-28T06:50:06.374Z,101479.06
2023-01-28T06:52:33.035Z,101480.06
2023-01-28T06:54:59.665Z,101485.03
2023-01-28T06:57:26.331Z,101486.38
2023-01-28T06:59:53.185Z,101486.72
2023-01-28T07:02:19.765Z,101489.72
2023-01-28T07:04:46.451Z,101494.75
2023-01-28T07:07:13.064Z,101492.41
2023-01-28T07:09:39.694Z,101485.56
2023-01-28T07:12:06.393Z,101494.88
2023-01-28T07:14:33.037Z,101491.38
2023-01-28T07:16:59.653Z,101490.69
2023-01-28T07:19:26.305Z,101492.34
2023-01-28T07:21:52.945Z,101493.34
2023-01-28T07:24:19.753Z,101501.34
2023-01-28T07:26:48.118Z,101501.50
2023-01-28T07:29:14.729Z,101494.84
2023-01-28T07:31:41.497Z,101503.31
2023-01-28T07:34:09.578Z,101499.50
2023-01-28T07:36:36.208Z,101500.84
2023-01-28T07:39:03.159Z,101495.53
2023-01-28T07:41:29.768Z,101493.34
2023-01-28T07:44:04.642Z,101492.84
2023-01-28T07:46:31.375Z,101503.28
2023-01-28T07:48:58.010Z,101505.47
2023-01-28T07:51:24.596Z,101500.03
2023-01-28T07:53:51.235Z,101507.94
2023-01-28T07:56:17.815Z,101511.97
2023-01-28T07:58:44.386Z,101508.13
2023-01-28T08:01:11.140Z,101515.09
2023-01-28T08:03:37.834Z,101509.31
2023-01-28T08:06:04.814Z,101515.63
2023-01-28T08:08:32.039Z,101515.94
2023-01-28T08:10:58.670Z,101518.25
2023-01-28T08:13:25.519Z,101519.06
2023-01-28T08:15:55.972Z,101522.25
2023-01-28T08:18:22.622Z,101519.91
2023-01-28T08:20:49.293Z,101524.72
2023-01-28T08:23:20.764Z,101526.41
2023-01-28T08:25:48.911Z,101530.53
2023-01-28T08:28:17.100Z,101531.06
2023-01-28T08:30:44.485Z,101536.19
2023-01-28T08:33:13.798Z,101532.19
2023-01-28T08:35:41.040Z,101535.47
2023-01-28T08:38:08.477Z,101536.47
2023-01-28T08:40:35.880Z,101539.78
2023-01-28T08:43:02.839Z,101534.53
2023-01-28T08:45:30.253Z,101530.53
2023-01-28T08:48:02.085Z,101535.53
2023-01-28T08:50:32.888Z,101537.34
2023-01-28T08:53:02.041Z,101537.31
2023-01-28T08:55:30.410Z,101532.94
2023-01-28T08:57:58.672Z,101536.59
2023-01-28T09:00:25.653Z,101538.13
2023-01-28T09:02:53.163Z,101540.28
2023-01-28T09:05:21.126Z,101536.47
2023-01-28T09:07:48.702Z,101543.59
2023-01-28T09:10:16.625Z,101540.94
2023-01-28T09:12:44.050Z,101544.22
2023-01-28T09:15:12.025Z,101550.09
2023-01-28T09:17:39.181Z,101547.06
2023-01-28T09:20:07.116Z,101546.06
2023-01-28T09:22:34.074Z,101555.69
2023-01-28T09:25:00.674Z,101554.22
2023-01-28T09:27:27.352Z,101548.25
2023-01-28T09:29:54.035Z,101564.31
2023-01-28T09:32:21.209Z,101562.47
2023-01-28T09:34:47.824Z,101562.94
2023-01-28T09:37:14.759Z,101569.94
2023-01-28T09:39:41.523Z,101569.47
2023-01-28T09:42:31.578Z,101567.47
2023-01-28T09:45:04.081Z,101573.72
2023-01-28T09:47:41.305Z,101576.44
2023-01-28T09:50:15.030Z,101576.25
2023-01-28T09:52:42.529Z,101579.84
2023-01-28T09:55:22.652Z,101576.91
2023-01-28T09:57:55.307Z,101584.19
2023-01-28T10:00:34.525Z,101582.34
2023-01-28T10:03:28.670Z,101578.03
2023-01-28T10:06:23.752Z,101583.34
2023-01-28T10:09:02.926Z,101582.50
2023-01-28T10:11:43.133Z,101584.47
2023-01-28T10:14:24.432Z,101585.56
2023-01-28T10:17:00.325Z,101581.25
2023-01-28T10:19:31.695Z,101584.56
2023-01-28T10:22:06.691Z,101584.88
2023-01-28T10:24:41.237Z,101587.38
2023-01-28T10:27:15.102Z,101581.41
2023-01-28T10:29:45.896Z,101590.94
2023-01-28T10:32:21.409Z,101582.31
2023-01-28T10:34:48.177Z,101588.81
2023-01-28T10:37:16.089Z,101582.13
2023-01-28T10:39:43.335Z,101594.16
2023-01-28T10:42:32.325Z,101588.81
2023-01-28T10:45:34.750Z,101581.34
2023-01-28T10:48:08.822Z,101594.81
2023-01-28T10:50:35.530Z,101591.16
2023-01-28T10:53:05.325Z,101586.66
2023-01-28T10:55:48.255Z,101584.19
2023-01-28T10:58:20.381Z,101602.00
2023-01-28T11:00:53.809Z,101593.69
2023-01-28T11:03:21.278Z,101591.41
2023-01-28T11:05:52.553Z,101603.56
2023-01-28T11:08:20.296Z,101597.94
2023-01-28T11:10:48.243Z,101602.91
2023-01-28T11:13:20.316Z,101604.91
2023-01-28T11:16:12.479Z,101602.44
2023-01-28T11:18:41.236Z,101604.63
2023-01-28T11:21:17.876Z,101607.31
2023-01-28T11:23:57.982Z,101605.47
2023-01-28T11:26:32.848Z,101594.66
2023-01-28T11:28:59.790Z,101591.97
2023-01-28T11:31:27.982Z,101603.78
2023-01-28T11:33:57.160Z,101610.38
2023-01-28T11:36:26.024Z,101603.06
2023-01-28T11:38:58.715Z,101605.53
2023-01-28T11:41:28.922Z,101607.47
2023-01-28T11:43:56.439Z,101602.13
2023-01-28T11:46:41.285Z,101598.13
2023-01-28T11:49:30.882Z,101594.13
2023-01-28T11:52:09.859Z,101593.31
2023-01-28T11:54:54.991Z,101585.31
2023-01-28T11:57:31.281Z,101578.31
2023-01-28T12:00:25.542Z,101587.25
2023-01-28T12:03:17.042Z,101584.38
2023-01-28T12:05:49.598Z,101585.88
2023-01-28T12:08:34.461Z,101572.88
2023-01-28T12:11:51.017Z,101575.72
2023-01-28T12:14:25.499Z,101569.06
2023-01-28T12:16:58.144Z,101564.56
2023-01-28T12:19:24.683Z,101566.59
2023-01-28T12:22:12.504Z,101565.25
2023-01-28T12:25:07.443Z,101568.19
2023-01-28T12:28:10.852Z,101562.09
2023-01-28T12:31:08.222Z,101555.34
2023-01-28T12:33:51.968Z,101555.97
2023-01-28T12:36:38.930Z,101560.56
2023-01-28T12:39:31.434Z,101562.81
2023-01-28T12:42:16.368Z,101562.91
2023-01-28T12:44:51.467Z,101557.59
2023-01-28T12:47:35.091Z,101559.75
2023-01-28T12:50:14.569Z,101557.78
2023-01-28T12:52:48.584Z,101547.34
2023-01-28T12:55:15.197Z,101551.13
2023-01-28T12:57:42.031Z,101552.47
2023-01-28T13:00:36.967Z,101555.16
2023-01-28T13:03:22.020Z,101566.19
2023-01-28T13:05:53.811Z,101548.56
2023-01-28T13:08:28.402Z,101561.88
2023-01-28T13:10:57.819Z,101560.75
2023-01-28T13:13:39.101Z,101559.81
2023-01-28T13:16:08.987Z,101552.50
2023-01-28T13:18:42.418Z,101554.13
2023-01-28T13:21:24.278Z,101552.59
2023-01-28T13:24:21.946Z,101556.16
2023-01-28T13:26:56.243Z,101552.44
2023-01-28T13:29:25.680Z,101565.16
2023-01-28T13:31:55.655Z,101560.66
2023-01-28T13:34:35.535Z,101563.53
2023-01-28T13:37:42.923Z,101567.16
2023-01-28T13:40:30.770Z,101576.53
2023-01-28T13:43:07.863Z,101578.03
2023-01-28T13:45:34.980Z,101573.88
2023-01-28T13:48:39.537Z,101579.75
2023-01-28T13:51:19.457Z,101589.59
2023-01-28T13:54:07.884Z,101594.25
2023-01-28T13:57:01.036Z,101594.63
2023-01-28T13:59:38.751Z,101602.25
2023-01-28T14:02:25.927Z,101606.41
2023-01-28T14:05:27.757Z,101610.59
2023-01-28T14:08:17.576Z,101623.75
2023-01-28T14:10:53.356Z,101625.53
2023-01-28T14:13:42.920Z,101619.38
2023-01-28T14:16:28.217Z,101633.19
2023-01-28T14:18:59.515Z,101628.38
2023-01-28T14:21:28.099Z,101641.00
2023-01-28T14:23:57.342Z,101639.84
2023-01-28T14:26:57.211Z,101634.03
2023-01-28T14:29:51.419Z,101638.88
2023-01-28T14:32:21.769Z,101637.34
2023-01-28T14:34:49.136Z,101634.38
2023-01-28T14:37:20.962Z,101639.69
2023-01-28T14:39:57.836Z,101640.56
2023-01-28T14:42:27.612Z,101638.03
2023-01-28T14:45:28.402Z,101634.72
2023-01-28T14:48:21.061Z,101637.56
2023-01-28T14:50:59.493Z,101646.19
2023-01-28T14:53:55.975Z,101649.56
2023-01-28T14:56:55.457Z,101645.06
2023-01-28T14:59:26.489Z,101648.38
2023-01-28T15:01:59.354Z,101651.22
2023-01-28T15:04:27.446Z,101651.91
2023-01-28T15:06:55.027Z,101655.88
2023-01-28T15:09:23.279Z,101661.69
2023-01-28T15:11:54.223Z,101665.53
2023-01-28T15:14:31.582Z,101662.19
2023-01-28T15:17:01.436Z,101662.38
2023-01-28T15:19:37.229Z,101669.22
2023-01-28T15:22:08.081Z,101669.88
2023-01-28T15:24:35.813Z,101673.53
2023-01-28T15:27:03.035Z,101672.69
2023-01-28T15:29:35.295Z,101662.72
2023-01-28T15:32:03.910Z,101660.22
2023-01-28T15:34:31.019Z,101661.72
2023-01-28T15:37:01.156Z,101661.06
2023-01-28T15:39:29.739Z,101658.59
2023-01-28T15:42:06.732Z,101652.41
2023-01-28T15:44:42.401Z,101650.75
2023-01-28T15:47:20.541Z,101658.72
2023-01-28T15:49:50.213Z,101654.91
2023-01-28T15:52:17.245Z,101651.28
2023-01-28T15:54:48.326Z,101656.25
2023-01-28T15:57:34.904Z,101659.88
2023-01-28T16:00:07.335Z,101657.56
2023-01-28T16:03:08.068Z,101661.56
2023-01-28T16:05:41.235Z,101665.41
2023-01-28T16:08:23.411Z,101667.72
2023-01-28T16:10:55.548Z,101672.38
2023-01-28T16:13:25.464Z,101671.69
2023-01-28T16:15:54.553Z,101671.72
2023-01-28T16:18:39.656Z,101667.38
2023-01-28T16:21:10.617Z,101663.56
2023-01-28T16:23:39.443Z,101662.56
2023-01-28T16:26:26.665Z,101664.75
2023-01-28T16:28:53.481Z,101666.41
2023-01-28T16:31:20.478Z,101681.50
2023-01-28T16:33:47.374Z,101685.00
2023-01-28T16:36:16.360Z,101683.34
2023-01-28T16:38:43.082Z,101688.47
2023-01-28T16:41:15.755Z,101690.16
2023-01-28T16:43:42.369Z,101695.47
2023-01-28T16:46:13.173Z,101690.50
2023-01-28T16:48:39.837Z,101697.13
2023-01-28T16:51:06.575Z,101705.28
2023-01-28T16:53:34.679Z,101700.97
2023-01-28T16:56:01.665Z,101695.47
2023-01-28T16:58:28.810Z,101699.94
2023-01-28T17:00:55.810Z,101703.13
2023-01-28T17:03:23.758Z,101702.13
2023-01-28T17:05:50.606Z,101695.16
2023-01-28T17:08:22.523Z,101702.47
2023-01-28T17:10:58.950Z,101706.09
2023-01-28T17:13:26.105Z,101707.44
2023-01-28T17:15:53.206Z,101717.06
2023-01-28T17:18:20.005Z,101717.25
2023-01-28T17:20:46.758Z,101711.44
2023-01-28T17:23:20.968Z,101715.28
2023-01-28T17:25:47.876Z,101723.38
2023-01-28T17:28:14.915Z,101720.06
2023-01-28T17:30:42.090Z,101726.03
2023-01-28T17:33:09.565Z,101724.38
2023-01-28T17:35:36.698Z,101728.22
2023-01-28T17:38:05.204Z,101729.53
2023-01-28T17:40:32.311Z,101737.47
2023-01-28T17:42:59.092Z,101737.19
2023-01-28T17:45:26.022Z,101732.16
2023-01-28T17:47:52.684Z,101736.00
2023-01-28T17:50:19.356Z,101735.19
2023-01-28T17:52:46.085Z,101745.16
2023-01-28T17:55:12.738Z,101752.63
2023-01-28T17:57:39.383Z,101748.63
2023-01-28T18:00:06.947Z,101757.41
2023-01-28T18:02:38.702Z,101764.59
2023-01-28T18:05:07.702Z,101761.09
2023-01-28T18:07:34.659Z,101765.56
2023-01-28T18:10:01.316Z,101770.25
2023-01-28T18:12:28.264Z,101771.53
2023-01-28T18:14:55.020Z,101770.25
2023-01-28T18:17:26.863Z,101767.72
2023-01-28T18:19:53.759Z,101769.41
2023-01-28T18:22:23.509Z,101765.59
2023-01-28T18:24:50.170Z,101761.91
2023-01-28T18:27:17.667Z,101763.22
2023-01-28T18:29:44.264Z,101764.09
2023-01-28T18:32:10.860Z,101775.53
2023-01-28T18:34:37.535Z,101774.16
2023-01-28T18:37:06.802Z,101762.69
2023-01-28T18:39:33.633Z,101771.91
2023-01-28T18:42:00.762Z,101771.03
2023-01-28T18:44:30.302Z,101773.88
2023-01-28T18:46:57.337Z,101770.00
2023-01-28T18:49:24.833Z,101772.81
2023-01-28T18:51:51.802Z,101768.72
2023-01-28T18:54:20.270Z,101764.41
2023-01-28T18:56:48.657Z,101765.19
2023-01-28T18:59:17.939Z,101760.88
2023-01-28T19:01:47.560Z,101768.50
2023-01-28T19:04:15.853Z,101769.38
2023-01-28T19:06:43.462Z,101763.19
2023-01-28T19:09:11.594Z,101776.53
2023-01-28T19:11:40.588Z,101787.34
2023-01-28T19:14:13.940Z,101799.78
2023-01-28T19:16:40.675Z,101798.44
2023-01-28T19:19:07.959Z,101805.72
2023-01-28T19:21:34.652Z,101808.53
2023-01-28T19:24:05.397Z,101811.69
2023-01-28T19:26:33.251Z,101819.19
2023-01-28T19:28:59.931Z,101818.69
2023-01-28T19:31:27.800Z,101811.81
2023-01-28T19:33:57.689Z,101816.34
2023-01-28T19:36:26.061Z,101818.34
2023-01-28T19:39:05.592Z,101826.31
2023-01-28T19:41:32.494Z,101832.78
2023-01-28T19:43:59.557Z,101829.97
2023-01-28T19:46:29.356Z,101838.88
2023-01-28T19:48:58.532Z,101837.63
2023-01-28T19:51:25.432Z,101838.03
2023-01-28T19:53:54.724Z,101836.53
2023-01-28T19:56:23.290Z,101832.22
2023-01-28T19:58:50.633Z,101837.25
2023-01-28T20:01:20.606Z,101842.19
2023-01-28T20:03:52.528Z,101842.56
2023-01-28T20:06:19.252Z,101841.22
2023-01-28T20:08:50.727Z,101850.19
2023-01-28T20:11:17.970Z,101855.22
2023-01-28T20:13:46.597Z,101849.56
2023-01-28T20:16:17.727Z,101847.41
2023-01-28T20:18:49.034Z,101841.16
2023-01-28T20:21:15.694Z,101842.44
2023-01-28T20:23:42.554Z,101848.59
2023-01-28T20:26:09.254Z,101847.78
2023-01-28T20:28:36.071Z,101846.09
2023-01-28T20:31:07.276Z,101839.09
2023-01-28T20:33:34.226Z,101839.09
2023-01-28T20:36:05.752Z,101842.66
2023-01-28T20:38:36.981Z,101851.88
2023-01-28T20:41:17.263Z,101844.75
2023-01-28T20:43:44.931Z,101844.75
2023-01-28T20:46:17.522Z,101846.81
2023-01-28T20:48:45.221Z,101843.84
2023-01-28T20:51:13.603Z,101852.97
2023-01-28T20:53:40.925Z,101844.44
2023-01-28T20:56:08.906Z,101861.72
2023-01-28T20:58:36.091Z,101860.72
2023-01-28T21:01:03.906Z,101871.81
2023-01-28T21:03:30.559Z,101868.28
2023-01-28T21:05:57.207Z,101870.50
2023-01-28T21:08:23.876Z,101875.47
2023-01-28T21:10:50.535Z,101870.41
2023-01-28T21:13:17.711Z,101866.78
2023-01-28T21:15:55.222Z,101871.25
2023-01-28T21:18:23.039Z,101872.75
2023-01-28T21:20:50.883Z,101864.72
2023-01-28T21:23:17.683Z,101871.03
2023-01-28T21:25:50.989Z,101866.84
2023-01-28T21:28:19.117Z,101877.28
2023-01-28T21:30:46.520Z,101871.00
2023-01-28T21:33:13.369Z,101870.31
2023-01-28T21:35:42.142Z,101871.00
2023-01-28T21:38:09.752Z,101871.50
2023-01-28T21:40:36.918Z,101872.69
2023-01-28T21:43:03.818Z,101867.34
2023-01-28T21:45:30.721Z,101872.66
2023-01-28T21:47:57.501Z,101879.00
2023-01-28T21:50:24.318Z,101866.00
2023-01-28T21:52:51.248Z,101864.19
2023-01-28T21:55:18.832Z,101858.88
2023-01-28T21:57:45.486Z,101858.06
2023-01-28T22:00:13.578Z,101854.06
2023-01-28T22:02:40.507Z,101845.03
2023-01-28T22:05:07.629Z,101842.69
2023-01-28T22:07:34.280Z,101839.72
2023-01-28T22:10:00.990Z,101847.66
2023-01-28T22:12:28.092Z,101842.22
2023-01-28T22:14:54.912Z,101844.44
2023-01-28T22:17:21.646Z,101847.41
2023-01-28T22:19:48.529Z,101840.69
2023-01-28T22:22:16.014Z,101837.66
2023-01-28T22:24:42.791Z,101836.72
2023-01-28T22:27:09.671Z,101831.31
2023-01-28T22:29:36.272Z,101835.13
2023-01-28T22:32:04.700Z,101837.03
2023-01-28T22:34:31.761Z,101831.25
2023-01-28T22:36:58.910Z,101831.41
2023-01-28T22:39:25.561Z,101830.75
2023-01-28T22:41:52.279Z,101823.09
2023-01-28T22:44:20.098Z,101824.22
2023-01-28T22:46:47.521Z,101818.06
2023-01-28T22:49:15.102Z,101812.66
2023-01-28T22:51:42.472Z,101820.09
2023-01-28T22:54:11.531Z,101809.63
2023-01-28T22:56:38.695Z,101820.22
2023-01-28T22:59:05.853Z,101818.88
2023-01-28T23:01:33.086Z,101824.47
2023-01-28T23:03:59.942Z,101821.31
2023-01-28T23:06:27.545Z,101816.97
2023-01-28T23:08:56.144Z,101820.63
2023-01-28T23:11:27.105Z,101821.97
2023-01-28T23:14:21.521Z,101820.22
2023-01-28T23:17:07.856Z,101827.66
2023-01-28T23:19:53.649Z,101827.06
2023-01-28T23:22:51.218Z,101829.56
2023-01-28T23:25:18.856Z,101835.38
2023-01-28T23:27:45.497Z,101836.53
2023-01-28T23:30:13.137Z,101847.94
2023-01-28T23:32:45.924Z,101833.22
2023-01-28T23:35:12.798Z,101835.19
2023-01-28T23:37:39.414Z,101838.34
2023-01-28T23:40:07.088Z,101832.44
2023-01-28T23:42:33.698Z,101826.75
2023-01-28T23:45:00.282Z,101826.06
2023-01-28T23:47:26.998Z,101828.66
2023-01-28T23:49:53.716Z,101825.38
2023-01-28T23:52:20.453Z,101830.16
2023-01-28T23:54:47.139Z,101830.69
2023-01-28T23:57:13.712Z,101818.19
2023-01-28T23:59:40.378Z,101821.91
